sensor_id;sensor_type;location;lat;lon;timestamp;temperature;humidity
14709;DHT22;7445;50.774;4.944;2023-07-16T06:41:39;18.20;92.60
14709;DHT22;7445;50.774;4.944;2023-07-16T06:44:22;18.20;90.20
14709;DHT22;7445;50.774;4.944;2023-07-16T06:46:49;18.20;93.30
14709;DHT22;7445;50.774;4.944;2023-07-16T06:49:15;18.20;89.60
14709;DHT22;7445;50.774;4.944;2023-07-16T06:51:41;18.30;91.00
14709;DHT22;7445;50.774;4.944;2023-07-16T06:54:20;18.30;93.80
14709;DHT22;7445;50.774;4.944;2023-07-16T06:57:10;18.50;87.40
14709;DHT22;7445;50.774;4.944;2023-07-16T07:00:01;18.70;91.20
14709;DHT22;7445;50.774;4.944;2023-07-16T07:19:03;19.40;73.70
14709;DHT22;7445;50.774;4.944;2023-07-16T07:21:30;19.60;46.80
14709;DHT22;7445;50.774;4.944;2023-07-16T07:23:55;19.70;42.60
14709;DHT22;7445;50.774;4.944;2023-07-16T07:26:24;19.80;28.20
14709;DHT22;7445;50.774;4.944;2023-07-16T07:29:03;19.80;15.50
14709;DHT22;7445;50.774;4.944;2023-07-16T07:31:39;19.90;4.30
14709;DHT22;7445;50.774;4.944;2023-07-16T07:34:43;20.00;1.20
14709;DHT22;7445;50.774;4.944;2023-07-16T07:37:08;20.10;1.00
14709;DHT22;7445;50.774;4.944;2023-07-16T07:39:41;20.20;1.00
14709;DHT22;7445;50.774;4.944;2023-07-16T07:42:07;20.20;9.30
14709;DHT22;7445;50.774;4.944;2023-07-16T07:44:39;20.30;1.00
14709;DHT22;7445;50.774;4.944;2023-07-16T07:47:05;20.30;1.00
14709;DHT22;7445;50.774;4.944;2023-07-16T07:49:55;20.40;1.00
14709;DHT22;7445;50.774;4.944;2023-07-16T07:52:23;20.40;3.70
14709;DHT22;7445;50.774;4.944;2023-07-16T07:54:49;20.50;1.00
14709;DHT22;7445;50.774;4.944;2023-07-16T07:57:15;20.40;1.00
14709;DHT22;7445;50.774;4.944;2023-07-16T07:59:42;20.60;1.00
14709;DHT22;7445;50.774;4.944;2023-07-16T08:02:09;20.60;1.00
14709;DHT22;7445;50.774;4.944;2023-07-16T08:04:37;20.60;1.00
14709;DHT22;7445;50.774;4.944;2023-07-16T08:07:07;20.80;1.00
14709;DHT22;7445;50.774;4.944;2023-07-16T08:09:39;21.00;1.00
14709;DHT22;7445;50.774;4.944;2023-07-16T08:12:14;21.00;1.00
14709;DHT22;7445;50.774;4.944;2023-07-16T08:14:53;21.30;1.00
14709;DHT22;7445;50.774;4.944;2023-07-16T08:18:10;21.40;1.00
14709;DHT22;7445;50.774;4.944;2023-07-16T08:20:46;21.50;1.00
14709;DHT22;7445;50.774;4.944;2023-07-16T08:23:19;21.70;1.00
14709;DHT22;7445;50.774;4.944;2023-07-16T08:25:47;21.90;1.00
14709;DHT22;7445;50.774;4.944;2023-07-16T08:28:13;21.90;1.00
14709;DHT22;7445;50.774;4.944;2023-07-16T09:12:46;23.70;1.00
14709;DHT22;7445;50.774;4.944;2023-07-16T09:15:18;23.50;1.00
14709;DHT22;7445;50.774;4.944;2023-07-16T09:18:02;23.40;1.00
14709;DHT22;7445;50.774;4.944;2023-07-16T09:20:43;23.30;1.00
14709;DHT22;7445;50.774;4.944;2023-07-16T09:23:27;23.30;1.00
14709;DHT22;7445;50.774;4.944;2023-07-16T09:25:56;23.30;1.00
14709;DHT22;7445;50.774;4.944;2023-07-16T09:28:23;23.70;1.00
14709;DHT22;7445;50.774;4.944;2023-07-16T09:30:50;24.10;1.00
14709;DHT22;7445;50.774;4.944;2023-07-16T09:33:18;24.60;1.00
14709;DHT22;7445;50.774;4.944;2023-07-16T09:36:09;24.70;1.00
14709;DHT22;7445;50.774;4.944;2023-07-16T09:38:48;24.40;1.00
14709;DHT22;7445;50.774;4.944;2023-07-16T09:41:18;24.20;1.00
14709;DHT22;7445;50.774;4.944;2023-07-16T09:43:55;24.10;1.00
14709;DHT22;7445;50.774;4.944;2023-07-16T09:46:20;24.30;1.00
14709;DHT22;7445;50.774;4.944;2023-07-16T09:48:53;24.20;1.00
14709;DHT22;7445;50.774;4.944;2023-07-16T09:51:19;24.20;1.00
14709;DHT22;7445;50.774;4.944;2023-07-16T09:53:49;24.00;1.00
14709;DHT22;7445;50.774;4.944;2023-07-16T09:56:24;23.90;1.00
14709;DHT22;7445;50.774;4.944;2023-07-16T09:58:58;23.80;1.00
14709;DHT22;7445;50.774;4.944;2023-07-16T10:01:28;23.60;1.00
14709;DHT22;7445;50.774;4.944;2023-07-16T10:03:55;23.70;1.00
14709;DHT22;7445;50.774;4.944;2023-07-16T10:06:21;24.10;1.00
14709;DHT22;7445;50.774;4.944;2023-07-16T10:08:51;24.10;1.00
14709;DHT22;7445;50.774;4.944;2023-07-16T10:11:18;23.80;1.00
14709;DHT22;7445;50.774;4.944;2023-07-16T10:13:53;23.60;1.00
14709;DHT22;7445;50.774;4.944;2023-07-16T10:16:22;23.60;1.00
14709;DHT22;7445;50.774;4.944;2023-07-16T10:18:54;23.40;1.00
14709;DHT22;7445;50.774;4.944;2023-07-16T10:21:26;23.20;1.00
14709;DHT22;7445;50.774;4.944;2023-07-16T10:24:00;23.20;1.00
14709;DHT22;7445;50.774;4.944;2023-07-16T10:26:33;23.00;1.00
14709;DHT22;7445;50.774;4.944;2023-07-16T10:29:06;22.80;1.00
14709;DHT22;7445;50.774;4.944;2023-07-16T10:31:40;22.90;1.00
14709;DHT22;7445;50.774;4.944;2023-07-16T10:34:07;23.00;1.00
14709;DHT22;7445;50.774;4.944;2023-07-16T10:36:45;23.10;1.00
14709;DHT22;7445;50.774;4.944;2023-07-16T10:39:15;23.30;1.00
14709;DHT22;7445;50.774;4.944;2023-07-16T10:41:42;23.30;1.00
14709;DHT22;7445;50.774;4.944;2023-07-16T10:44:09;23.60;1.00
14709;DHT22;7445;50.774;4.944;2023-07-16T10:46:38;23.80;1.00
14709;DHT22;7445;50.774;4.944;2023-07-16T10:49:04;24.20;1.00
14709;DHT22;7445;50.774;4.944;2023-07-16T10:51:29;24.40;1.00
14709;DHT22;7445;50.774;4.944;2023-07-16T10:53:56;24.40;1.00
14709;DHT22;7445;50.774;4.944;2023-07-16T10:56:23;24.20;1.00
14709;DHT22;7445;50.774;4.944;2023-07-16T10:58:50;24.00;1.00
14709;DHT22;7445;50.774;4.944;2023-07-16T11:01:16;24.10;1.00
14709;DHT22;7445;50.774;4.944;2023-07-16T11:03:48;24.10;1.00
14709;DHT22;7445;50.774;4.944;2023-07-16T11:06:13;24.40;1.00
14709;DHT22;7445;50.774;4.944;2023-07-16T11:08:41;24.80;1.00
14709;DHT22;7445;50.774;4.944;2023-07-16T11:11:06;25.30;1.00
14709;DHT22;7445;50.774;4.944;2023-07-16T11:13:35;25.70;1.00
14709;DHT22;7445;50.774;4.944;2023-07-16T11:16:10;25.30;1.00
14709;DHT22;7445;50.774;4.944;2023-07-16T11:18:36;25.00;1.00
14709;DHT22;7445;50.774;4.944;2023-07-16T11:21:03;24.80;1.00
14709;DHT22;7445;50.774;4.944;2023-07-16T11:23:29;24.50;1.00
14709;DHT22;7445;50.774;4.944;2023-07-16T11:25:54;24.40;1.00
14709;DHT22;7445;50.774;4.944;2023-07-16T11:28:20;24.40;1.00
14709;DHT22;7445;50.774;4.944;2023-07-16T11:30:46;24.20;1.00
14709;DHT22;7445;50.774;4.944;2023-07-16T11:33:12;24.40;1.00
14709;DHT22;7445;50.774;4.944;2023-07-16T11:35:40;24.40;1.00
14709;DHT22;7445;50.774;4.944;2023-07-16T11:38:06;24.50;1.00
14709;DHT22;7445;50.774;4.944;2023-07-16T11:40:35;24.60;1.00
14709;DHT22;7445;50.774;4.944;2023-07-16T11:43:11;24.90;1.00
14709;DHT22;7445;50.774;4.944;2023-07-16T11:45:38;25.10;1.00
14709;DHT22;7445;50.774;4.944;2023-07-16T11:48:04;25.30;1.00
14709;DHT22;7445;50.774;4.944;2023-07-16T11:50:31;25.40;1.00
14709;DHT22;7445;50.774;4.944;2023-07-16T11:53:00;25.60;1.00
14709;DHT22;7445;50.774;4.944;2023-07-16T11:55:29;25.50;1.00
14709;DHT22;7445;50.774;4.944;2023-07-16T11:57:55;25.60;1.00
14709;DHT22;7445;50.774;4.944;2023-07-16T12:00:25;25.70;1.00
14709;DHT22;7445;50.774;4.944;2023-07-16T12:02:51;25.70;1.00
14709;DHT22;7445;50.774;4.944;2023-07-16T12:05:25;25.60;1.00
14709;DHT22;7445;50.774;4.944;2023-07-16T12:07:53;25.50;1.00
14709;DHT22;7445;50.774;4.944;2023-07-16T12:10:19;25.40;1.00
14709;DHT22;7445;50.774;4.944;2023-07-16T12:12:45;25.60;1.00
14709;DHT22;7445;50.774;4.944;2023-07-16T12:15:11;25.70;1.00
14709;DHT22;7445;50.774;4.944;2023-07-16T12:17:37;25.80;1.00
14709;DHT22;7445;50.774;4.944;2023-07-16T12:20:03;25.70;1.00
14709;DHT22;7445;50.774;4.944;2023-07-16T12:22:30;25.70;1.00
14709;DHT22;7445;50.774;4.944;2023-07-16T12:24:56;25.70;1.00
14709;DHT22;7445;50.774;4.944;2023-07-16T12:27:22;25.70;1.00
14709;DHT22;7445;50.774;4.944;2023-07-16T12:29:49;26.20;1.00
14709;DHT22;7445;50.774;4.944;2023-07-16T12:32:14;26.30;1.00
14709;DHT22;7445;50.774;4.944;2023-07-16T12:34:40;26.50;1.00
14709;DHT22;7445;50.774;4.944;2023-07-16T12:37:06;26.60;1.00
14709;DHT22;7445;50.774;4.944;2023-07-16T12:39:35;27.10;1.00
14709;DHT22;7445;50.774;4.944;2023-07-16T12:42:00;27.70;1.00
14709;DHT22;7445;50.774;4.944;2023-07-16T12:44:26;27.60;1.00
14709;DHT22;7445;50.774;4.944;2023-07-16T12:46:52;27.40;1.00
14709;DHT22;7445;50.774;4.944;2023-07-16T12:49:19;27.20;1.00
14709;DHT22;7445;50.774;4.944;2023-07-16T12:51:46;26.90;1.00
14709;DHT22;7445;50.774;4.944;2023-07-16T12:54:22;26.90;1.00
14709;DHT22;7445;50.774;4.944;2023-07-16T12:57:12;27.00;1.00
14709;DHT22;7445;50.774;4.944;2023-07-16T12:59:59;27.50;1.00
14709;DHT22;7445;50.774;4.944;2023-07-16T13:02:29;27.90;1.00
14709;DHT22;7445;50.774;4.944;2023-07-16T13:05:04;28.30;1.00
14709;DHT22;7445;50.774;4.944;2023-07-16T13:07:34;28.60;1.00
14709;DHT22;7445;50.774;4.944;2023-07-16T13:10:13;28.80;1.00
14709;DHT22;7445;50.774;4.944;2023-07-16T13:12:46;28.70;1.00
14709;DHT22;7445;50.774;4.944;2023-07-16T13:15:33;28.80;1.00
14709;DHT22;7445;50.774;4.944;2023-07-16T13:17:59;28.80;1.00
14709;DHT22;7445;50.774;4.944;2023-07-16T13:20:26;28.70;1.00
14709;DHT22;7445;50.774;4.944;2023-07-16T13:22:55;28.60;1.00
14709;DHT22;7445;50.774;4.944;2023-07-16T13:25:21;28.60;1.00
14709;DHT22;7445;50.774;4.944;2023-07-16T13:27:51;28.90;1.00
14709;DHT22;7445;50.774;4.944;2023-07-16T13:30:30;28.70;1.00
14709;DHT22;7445;50.774;4.944;2023-07-16T13:32:58;28.30;1.00
14709;DHT22;7445;50.774;4.944;2023-07-16T13:35:45;28.20;1.00
14709;DHT22;7445;50.774;4.944;2023-07-16T13:38:12;28.00;1.00
14709;DHT22;7445;50.774;4.944;2023-07-16T13:40:39;28.00;1.00
14709;DHT22;7445;50.774;4.944;2023-07-16T13:43:05;28.50;1.00
14709;DHT22;7445;50.774;4.944;2023-07-16T13:45:51;28.30;1.00
14709;DHT22;7445;50.774;4.944;2023-07-16T13:48:20;28.10;1.00
14709;DHT22;7445;50.774;4.944;2023-07-16T13:50:46;27.90;1.00
14709;DHT22;7445;50.774;4.944;2023-07-16T13:53:12;27.60;1.00
14709;DHT22;7445;50.774;4.944;2023-07-16T13:55:37;27.40;1.00
14709;DHT22;7445;50.774;4.944;2023-07-16T13:58:09;27.40;1.00
14709;DHT22;7445;50.774;4.944;2023-07-16T14:00:36;27.70;1.00
14709;DHT22;7445;50.774;4.944;2023-07-16T14:03:09;27.70;1.00
14709;DHT22;7445;50.774;4.944;2023-07-16T14:05:38;27.70;1.00
14709;DHT22;7445;50.774;4.944;2023-07-16T14:08:06;27.40;1.00
14709;DHT22;7445;50.774;4.944;2023-07-16T14:10:31;27.00;1.00
14709;DHT22;7445;50.774;4.944;2023-07-16T14:13:02;26.60;1.00
14709;DHT22;7445;50.774;4.944;2023-07-16T14:15:29;26.40;1.00
14709;DHT22;7445;50.774;4.944;2023-07-16T14:17:55;26.40;1.00
14709;DHT22;7445;50.774;4.944;2023-07-16T14:20:26;26.30;1.00
14709;DHT22;7445;50.774;4.944;2023-07-16T14:23:01;26.30;1.00
14709;DHT22;7445;50.774;4.944;2023-07-16T14:25:28;26.20;1.00
14709;DHT22;7445;50.774;4.944;2023-07-16T14:27:57;26.20;1.00
14709;DHT22;7445;50.774;4.944;2023-07-16T14:30:26;26.40;1.00
14709;DHT22;7445;50.774;4.944;2023-07-16T14:32:52;26.80;1.00
14709;DHT22;7445;50.774;4.944;2023-07-16T14:35:24;26.80;1.00
14709;DHT22;7445;50.774;4.944;2023-07-16T14:37:49;26.80;1.00
14709;DHT22;7445;50.774;4.944;2023-07-16T14:40:17;26.60;1.00
14709;DHT22;7445;50.774;4.944;2023-07-16T14:42:44;26.60;1.00
14709;DHT22;7445;50.774;4.944;2023-07-16T14:45:12;26.50;1.00
14709;DHT22;7445;50.774;4.944;2023-07-16T14:47:40;26.40;1.00
14709;DHT22;7445;50.774;4.944;2023-07-16T14:50:07;26.50;1.00
14709;DHT22;7445;50.774;4.944;2023-07-16T14:52:33;26.60;1.00
14709;DHT22;7445;50.774;4.944;2023-07-16T14:55:00;26.60;1.00
14709;DHT22;7445;50.774;4.944;2023-07-16T14:57:26;26.40;1.00
14709;DHT22;7445;50.774;4.944;2023-07-16T15:00:01;26.20;1.00
14709;DHT22;7445;50.774;4.944;2023-07-16T15:02:32;26.00;1.00
14709;DHT22;7445;50.774;4.944;2023-07-16T15:05:00;25.90;1.00
14709;DHT22;7445;50.774;4.944;2023-07-16T15:07:28;25.90;1.00
14709;DHT22;7445;50.774;4.944;2023-07-16T15:09:57;25.90;1.00
14709;DHT22;7445;50.774;4.944;2023-07-16T15:12:44;25.80;1.00
14709;DHT22;7445;50.774;4.944;2023-07-16T15:15:11;25.50;1.00
14709;DHT22;7445;50.774;4.944;2023-07-16T15:17:56;25.30;1.00
14709;DHT22;7445;50.774;4.944;2023-07-16T15:20:44;25.30;1.00
14709;DHT22;7445;50.774;4.944;2023-07-16T15:23:23;25.40;1.00
14709;DHT22;7445;50.774;4.944;2023-07-16T15:26:05;25.50;1.00
14709;DHT22;7445;50.774;4.944;2023-07-16T15:28:37;25.60;1.00
14709;DHT22;7445;50.774;4.944;2023-07-16T15:31:04;25.70;1.00
14709;DHT22;7445;50.774;4.944;2023-07-16T15:33:32;25.80;1.00
14709;DHT22;7445;50.774;4.944;2023-07-16T15:36:00;25.90;1.00
14709;DHT22;7445;50.774;4.944;2023-07-16T15:38:26;26.10;1.00
14709;DHT22;7445;50.774;4.944;2023-07-16T15:40:55;26.00;1.00
14709;DHT22;7445;50.774;4.944;2023-07-16T15:43:21;26.00;1.00
14709;DHT22;7445;50.774;4.944;2023-07-16T15:45:47;25.90;1.00
14709;DHT22;7445;50.774;4.944;2023-07-16T15:48:13;25.60;1.00
14709;DHT22;7445;50.774;4.944;2023-07-16T15:50:39;25.70;1.00
14709;DHT22;7445;50.774;4.944;2023-07-16T15:53:06;25.50;1.00
14709;DHT22;7445;50.774;4.944;2023-07-16T15:55:32;25.40;1.00
14709;DHT22;7445;50.774;4.944;2023-07-16T15:57:58;25.50;1.00
14709;DHT22;7445;50.774;4.944;2023-07-16T16:00:25;25.50;1.00
14709;DHT22;7445;50.774;4.944;2023-07-16T16:02:52;25.30;1.00
14709;DHT22;7445;50.774;4.944;2023-07-16T16:05:25;25.20;1.00
14709;DHT22;7445;50.774;4.944;2023-07-16T16:08:11;25.00;1.00
14709;DHT22;7445;50.774;4.944;2023-07-16T16:10:39;24.80;1.00
14709;DHT22;7445;50.774;4.944;2023-07-16T16:13:05;24.70;1.00
14709;DHT22;7445;50.774;4.944;2023-07-16T16:15:32;24.80;1.00
14709;DHT22;7445;50.774;4.944;2023-07-16T16:17:58;24.80;1.00
14709;DHT22;7445;50.774;4.944;2023-07-16T16:20:24;24.80;1.00
14709;DHT22;7445;50.774;4.944;2023-07-16T16:22:49;24.80;1.00
14709;DHT22;7445;50.774;4.944;2023-07-16T16:25:16;24.80;1.00
14709;DHT22;7445;50.774;4.944;2023-07-16T16:27:43;24.80;1.00
14709;DHT22;7445;50.774;4.944;2023-07-16T16:30:57;25.10;1.00
14709;DHT22;7445;50.774;4.944;2023-07-16T16:33:23;25.10;1.00
14709;DHT22;7445;50.774;4.944;2023-07-16T16:35:48;25.20;1.00
14709;DHT22;7445;50.774;4.944;2023-07-16T17:01:40;24.50;1.00
14709;DHT22;7445;50.774;4.944;2023-07-16T17:19:40;23.70;1.00
14709;DHT22;7445;50.774;4.944;2023-07-16T17:22:14;23.50;1.00
14709;DHT22;7445;50.774;4.944;2023-07-16T17:24:43;23.10;1.00
14709;DHT22;7445;50.774;4.944;2023-07-16T17:27:12;22.70;1.00
14709;DHT22;7445;50.774;4.944;2023-07-16T17:29:45;22.50;1.00
14709;DHT22;7445;50.774;4.944;2023-07-16T17:32:12;22.20;1.00
14709;DHT22;7445;50.774;4.944;2023-07-16T17:34:39;22.10;4.40
14709;DHT22;7445;50.774;4.944;2023-07-16T17:37:07;21.90;2.30
14709;DHT22;7445;50.774;4.944;2023-07-16T17:39:33;21.60;18.10
14709;DHT22;7445;50.774;4.944;2023-07-16T17:42:00;21.60;32.10
14709;DHT22;7445;50.774;4.944;2023-07-16T17:44:27;21.50;24.70
14709;DHT22;7445;50.774;4.944;2023-07-16T17:46:53;21.30;43.40
14709;DHT22;7445;50.774;4.944;2023-07-16T17:49:19;21.30;61.50
14709;DHT22;7445;50.774;4.944;2023-07-16T17:51:44;21.20;71.20
14709;DHT22;7445;50.774;4.944;2023-07-16T17:54:21;21.30;73.50
14709;DHT22;7445;50.774;4.944;2023-07-16T17:56:46;21.30;69.70
14709;DHT22;7445;50.774;4.944;2023-07-16T17:59:13;21.40;60.90
14709;DHT22;7445;50.774;4.944;2023-07-16T18:01:39;21.70;66.30
14709;DHT22;7445;50.774;4.944;2023-07-16T18:04:04;22.40;43.20
14709;DHT22;7445;50.774;4.944;2023-07-16T18:06:30;22.70;33.90
14709;DHT22;7445;50.774;4.944;2023-07-16T18:08:56;22.80;30.00
14709;DHT22;7445;50.774;4.944;2023-07-16T18:11:24;22.70;23.90
14709;DHT22;7445;50.774;4.944;2023-07-16T18:13:49;22.50;29.90
14709;DHT22;7445;50.774;4.944;2023-07-16T18:16:15;22.30;32.60
14709;DHT22;7445;50.774;4.944;2023-07-16T18:18:41;22.00;36.30
14709;DHT22;7445;50.774;4.944;2023-07-16T18:21:06;21.90;48.00
14709;DHT22;7445;50.774;4.944;2023-07-16T18:23:32;21.70;48.50
14709;DHT22;7445;50.774;4.944;2023-07-16T18:25:58;21.50;59.70
14709;DHT22;7445;50.774;4.944;2023-07-16T18:28:24;21.40;73.00
14709;DHT22;7445;50.774;4.944;2023-07-16T18:30:49;21.20;78.40
14709;DHT22;7445;50.774;4.944;2023-07-16T18:33:15;21.10;81.00
14709;DHT22;7445;50.774;4.944;2023-07-16T18:35:42;20.90;76.10
14709;DHT22;7445;50.774;4.944;2023-07-16T18:38:11;20.80;84.70
14709;DHT22;7445;50.774;4.944;2023-07-16T18:40:36;20.80;94.30
14709;DHT22;7445;50.774;4.944;2023-07-16T18:43:04;20.80;88.20
14709;DHT22;7445;50.774;4.944;2023-07-16T18:45:30;20.70;91.10
14709;DHT22;7445;50.774;4.944;2023-07-16T18:47:56;20.70;86.10
14709;DHT22;7445;50.774;4.944;2023-07-16T18:50:22;20.60;85.40
14709;DHT22;7445;50.774;4.944;2023-07-16T18:52:47;20.60;83.60
14709;DHT22;7445;50.774;4.944;2023-07-16T18:55:13;20.60;87.20
14709;DHT22;7445;50.774;4.944;2023-07-16T18:57:39;20.50;84.30
14709;DHT22;7445;50.774;4.944;2023-07-16T19:00:08;20.60;82.90
14709;DHT22;7445;50.774;4.944;2023-07-16T19:02:34;20.60;84.60
14709;DHT22;7445;50.774;4.944;2023-07-16T19:04:59;20.50;78.70
14709;DHT22;7445;50.774;4.944;2023-07-16T19:07:25;20.40;89.50
14709;DHT22;7445;50.774;4.944;2023-07-16T19:09:52;20.40;89.60
14709;DHT22;7445;50.774;4.944;2023-07-16T19:12:27;20.40;95.40
14709;DHT22;7445;50.774;4.944;2023-07-16T19:14:55;20.30;95.50
14709;DHT22;7445;50.774;4.944;2023-07-16T19:17:26;20.30;92.60
14709;DHT22;7445;50.774;4.944;2023-07-16T19:19:53;20.30;94.10
14709;DHT22;7445;50.774;4.944;2023-07-16T19:22:23;20.20;93.70
14709;DHT22;7445;50.774;4.944;2023-07-16T19:24:50;20.30;94.50
14709;DHT22;7445;50.774;4.944;2023-07-16T19:27:17;20.30;95.40
14709;DHT22;7445;50.774;4.944;2023-07-16T19:30:13;20.30;96.90
14709;DHT22;7445;50.774;4.944;2023-07-16T19:32:38;20.20;96.20
14709;DHT22;7445;50.774;4.944;2023-07-16T19:35:26;20.20;95.80
14709;DHT22;7445;50.774;4.944;2023-07-16T19:37:51;20.10;96.00
14709;DHT22;7445;50.774;4.944;2023-07-16T19:40:26;20.10;94.10
14709;DHT22;7445;50.774;4.944;2023-07-16T19:43:14;20.00;99.90
14709;DHT22;7445;50.774;4.944;2023-07-16T19:45:40;19.90;96.00
14709;DHT22;7445;50.774;4.944;2023-07-16T19:48:07;19.90;95.40
14709;DHT22;7445;50.774;4.944;2023-07-16T19:50:33;19.90;95.80
14709;DHT22;7445;50.774;4.944;2023-07-16T19:52:59;19.90;95.70
14709;DHT22;7445;50.774;4.944;2023-07-16T19:55:25;19.80;94.30
14709;DHT22;7445;50.774;4.944;2023-07-16T19:57:54;19.80;91.80
14709;DHT22;7445;50.774;4.944;2023-07-16T20:00:23;19.70;96.20
14709;DHT22;7445;50.774;4.944;2023-07-16T20:02:49;19.70;96.00
14709;DHT22;7445;50.774;4.944;2023-07-16T20:05:15;19.60;94.00
14709;DHT22;7445;50.774;4.944;2023-07-16T20:07:43;19.50;91.60
14709;DHT22;7445;50.774;4.944;2023-07-16T20:10:10;19.50;92.00
14709;DHT22;7445;50.774;4.944;2023-07-16T20:12:39;19.50;92.10
14709;DHT22;7445;50.774;4.944;2023-07-16T20:15:10;19.40;89.90
14709;DHT22;7445;50.774;4.944;2023-07-16T20:17:51;19.40;85.60
14709;DHT22;7445;50.774;4.944;2023-07-16T20:20:18;19.40;79.80
14709;DHT22;7445;50.774;4.944;2023-07-16T20:22:44;19.40;82.90
14709;DHT22;7445;50.774;4.944;2023-07-16T20:25:14;19.40;81.00
14709;DHT22;7445;50.774;4.944;2023-07-16T20:27:44;19.40;87.00
14709;DHT22;7445;50.774;4.944;2023-07-16T20:30:26;19.40;87.70
14709;DHT22;7445;50.774;4.944;2023-07-16T20:32:53;19.40;92.90
14709;DHT22;7445;50.774;4.944;2023-07-16T20:35:47;19.30;95.70
14709;DHT22;7445;50.774;4.944;2023-07-16T20:38:12;19.40;95.80
14709;DHT22;7445;50.774;4.944;2023-07-16T20:40:39;19.40;92.50
14709;DHT22;7445;50.774;4.944;2023-07-16T20:43:07;19.40;88.90
14709;DHT22;7445;50.774;4.944;2023-07-16T20:45:46;19.40;85.20
14709;DHT22;7445;50.774;4.944;2023-07-16T20:48:14;19.40;91.00
14709;DHT22;7445;50.774;4.944;2023-07-16T20:50:42;19.30;90.60
14709;DHT22;7445;50.774;4.944;2023-07-16T20:53:26;19.30;90.00
14709;DHT22;7445;50.774;4.944;2023-07-16T20:56:04;19.30;89.00
14709;DHT22;7445;50.774;4.944;2023-07-16T20:58:30;19.20;94.50
14709;DHT22;7445;50.774;4.944;2023-07-16T21:01:12;19.20;97.00
14709;DHT22;7445;50.774;4.944;2023-07-16T21:03:43;19.30;93.10
14709;DHT22;7445;50.774;4.944;2023-07-16T21:06:15;19.40;94.00
14709;DHT22;7445;50.774;4.944;2023-07-16T21:08:45;19.30;93.90
14709;DHT22;7445;50.774;4.944;2023-07-16T21:11:16;19.20;92.60
14709;DHT22;7445;50.774;4.944;2023-07-16T21:13:50;19.20;94.60
14709;DHT22;7445;50.774;4.944;2023-07-16T21:16:21;19.20;93.20
14709;DHT22;7445;50.774;4.944;2023-07-16T21:19:08;19.20;95.20
14709;DHT22;7445;50.774;4.944;2023-07-16T21:21:34;19.20;95.30
14709;DHT22;7445;50.774;4.944;2023-07-16T21:23:59;19.10;94.80
14709;DHT22;7445;50.774;4.944;2023-07-16T21:26:35;19.00;95.60
14709;DHT22;7445;50.774;4.944;2023-07-16T21:29:05;19.00;95.70
14709;DHT22;7445;50.774;4.944;2023-07-16T21:31:55;19.10;95.80
14709;DHT22;7445;50.774;4.944;2023-07-16T21:34:26;19.00;99.90
14709;DHT22;7445;50.774;4.944;2023-07-16T21:36:57;19.00;99.90
14709;DHT22;7445;50.774;4.944;2023-07-16T21:39:24;18.90;99.90
14709;DHT22;7445;50.774;4.944;2023-07-16T21:41:52;18.80;99.90
14709;DHT22;7445;50.774;4.944;2023-07-16T21:44:23;18.80;99.90
